createdAt,value
2019-01-12T00:00:49.083Z,4.10
2019-01-12T00:01:49.098Z,4.20
2019-01-12T00:02:49.085Z,4.40
2019-01-12T00:03:49.197Z,4.20
2019-01-12T00:04:49.111Z,4.20
2019-01-12T00:05:49.121Z,4.00
2019-01-12T00:06:49.139Z,3.70
2019-01-12T00:07:49.175Z,3.60
2019-01-12T00:08:49.155Z,3.40
2019-01-12T00:09:49.172Z,3.50
2019-01-12T00:10:49.177Z,4.00
2019-01-12T00:11:49.217Z,3.60
2019-01-12T00:12:49.196Z,3.60
2019-01-12T00:13:49.214Z,3.40
2019-01-12T00:14:49.219Z,3.60
2019-01-12T00:15:49.231Z,3.90
2019-01-12T00:16:49.242Z,3.60
2019-01-12T00:17:49.253Z,3.80
2019-01-12T00:18:49.264Z,3.40
2019-01-12T00:19:49.272Z,3.20
2019-01-12T00:20:49.287Z,3.40
2019-01-12T00:21:49.298Z,3.90
2019-01-12T00:22:49.306Z,3.70
2019-01-12T00:23:49.319Z,3.60
2019-01-12T00:24:49.328Z,3.30
2019-01-12T00:25:49.340Z,3.50
2019-01-12T00:26:49.349Z,3.90
2019-01-12T00:27:49.367Z,3.20
2019-01-12T00:28:49.371Z,3.30
2019-01-12T00:29:49.405Z,3.40
2019-01-12T00:30:49.396Z,3.10
2019-01-12T00:31:49.406Z,3.00
2019-01-12T00:32:49.418Z,2.80
2019-01-12T00:33:49.430Z,3.10
2019-01-12T00:34:49.440Z,3.00
2019-01-12T00:35:49.453Z,3.00
2019-01-12T00:36:49.462Z,2.70
2019-01-12T00:37:49.473Z,3.10
2019-01-12T00:38:49.482Z,2.90
2019-01-12T00:39:49.495Z,2.70
2019-01-12T00:40:49.510Z,2.90
2019-01-12T00:41:49.516Z,2.90
2019-01-12T00:42:49.525Z,3.40
2019-01-12T00:43:49.537Z,3.20
2019-01-12T00:44:49.553Z,3.00
2019-01-12T00:45:49.560Z,3.10
2019-01-12T00:46:49.570Z,3.10
2019-01-12T00:47:49.581Z,3.10
2019-01-12T00:48:49.592Z,2.90
2019-01-12T00:49:49.606Z,2.90
2019-01-12T00:50:49.617Z,2.50
2019-01-12T00:51:49.626Z,2.50
2019-01-12T00:52:49.639Z,2.90
2019-01-12T00:53:49.657Z,2.60
2019-01-12T00:54:49.658Z,2.80
2019-01-12T00:55:49.672Z,3.00
2019-01-12T00:56:49.683Z,2.40
2019-01-12T00:57:49.693Z,2.40
2019-01-12T00:58:49.709Z,2.50
2019-01-12T00:59:49.720Z,2.60
2019-01-12T01:00:49.728Z,2.30
2019-01-12T01:01:49.735Z,2.50
2019-01-12T01:02:49.750Z,2.80
2019-01-12T01:03:49.760Z,2.60
2019-01-12T01:04:49.772Z,2.60
2019-01-12T01:05:49.779Z,2.50
2019-01-12T01:06:49.790Z,2.20
2019-01-12T01:07:49.802Z,2.60
2019-01-12T01:08:49.820Z,2.20
2019-01-12T01:09:49.823Z,2.10
2019-01-12T01:10:49.882Z,2.00
2019-01-12T01:11:49.845Z,2.30
2019-01-12T01:12:49.858Z,2.20
2019-01-12T01:13:49.871Z,2.30
2019-01-12T01:14:49.886Z,2.20
2019-01-12T01:15:49.895Z,2.30
2019-01-12T01:16:49.978Z,2.40
2019-01-12T01:17:49.937Z,2.20
2019-01-12T01:18:49.921Z,1.90
2019-01-12T01:19:49.937Z,2.50
2019-01-12T01:20:49.946Z,2.30
2019-01-12T01:21:50.009Z,2.60
2019-01-12T01:22:49.971Z,2.50
2019-01-12T01:23:49.985Z,2.20
2019-01-12T01:24:49.995Z,2.30
2019-01-12T01:25:50.000Z,2.20
2019-01-12T01:26:50.010Z,2.50
2019-01-12T01:27:50.024Z,2.50
2019-01-12T01:28:50.038Z,2.60
2019-01-12T01:29:50.046Z,2.60
2019-01-12T01:30:50.058Z,2.70
2019-01-12T01:31:50.081Z,2.70
2019-01-12T01:32:50.082Z,2.30
2019-01-12T01:33:50.094Z,2.30
2019-01-12T01:34:50.101Z,2.70
2019-01-12T01:35:50.115Z,2.60
2019-01-12T01:36:50.127Z,2.70
2019-01-12T01:37:50.134Z,2.50
2019-01-12T01:38:50.143Z,2.40
2019-01-12T01:39:50.197Z,2.60
2019-01-12T01:40:50.166Z,2.40
2019-01-12T01:41:50.177Z,2.90
2019-01-12T01:42:50.187Z,3.20
2019-01-12T01:43:50.198Z,2.90
2019-01-12T01:44:50.209Z,2.30
2019-01-12T01:45:50.224Z,2.40
2019-01-12T01:46:50.237Z,2.20
2019-01-12T01:47:50.243Z,2.40
2019-01-12T01:48:50.254Z,2.60
2019-01-12T01:49:50.278Z,2.10
2019-01-12T01:50:50.277Z,2.20
2019-01-12T01:51:50.286Z,2.00
2019-01-12T01:52:50.305Z,2.00
2019-01-12T01:53:50.303Z,2.10
2019-01-12T01:54:52.939Z,2.30
2019-01-12T01:55:50.330Z,2.00
2019-01-12T01:56:50.338Z,1.80
2019-01-12T01:57:50.347Z,2.00
2019-01-12T01:58:50.378Z,1.90
2019-01-12T01:59:50.371Z,1.80
2019-01-12T02:00:50.381Z,2.00
2019-01-12T02:01:50.396Z,2.10
2019-01-12T02:02:50.410Z,2.00
2019-01-12T02:03:50.417Z,1.80
2019-01-12T02:04:50.439Z,2.10
2019-01-12T02:05:50.439Z,2.00
2019-01-12T02:06:50.463Z,2.10
2019-01-12T02:07:50.459Z,1.80
2019-01-12T02:08:50.481Z,1.90
2019-01-12T02:09:50.483Z,1.90
2019-01-12T02:10:50.494Z,1.70
2019-01-12T02:11:50.515Z,1.90
2019-01-12T02:12:50.512Z,1.50
2019-01-12T02:13:50.521Z,2.20
2019-01-12T02:14:50.534Z,1.80
2019-01-12T02:15:50.544Z,1.90
2019-01-12T02:16:50.563Z,2.00
2019-01-12T02:17:50.569Z,1.90
2019-01-12T02:18:50.575Z,1.60
2019-01-12T02:19:50.586Z,2.30
2019-01-12T02:20:50.606Z,2.00
2019-01-12T02:21:50.613Z,1.90
2019-01-12T02:22:50.623Z,1.90
2019-01-12T02:23:50.633Z,1.50
2019-01-12T02:24:50.787Z,1.80
2019-01-12T02:25:50.687Z,2.00
2019-01-12T02:26:50.669Z,2.00
2019-01-12T02:27:50.673Z,1.80
2019-01-12T02:28:50.694Z,1.60
2019-01-12T02:29:50.700Z,1.60
2019-01-12T02:30:50.707Z,1.70
2019-01-12T02:31:50.725Z,1.90
2019-01-12T02:32:50.733Z,1.90
2019-01-12T02:33:50.741Z,1.90
2019-01-12T02:34:50.758Z,1.90
2019-01-12T02:35:50.760Z,1.80
2019-01-12T02:36:50.778Z,2.10
2019-01-12T02:37:50.784Z,1.90
2019-01-12T02:38:50.819Z,1.70
2019-01-12T02:39:50.805Z,1.90
2019-01-12T02:40:50.820Z,2.00
2019-01-12T02:41:50.828Z,2.00
2019-01-12T02:42:50.841Z,2.10
2019-01-12T02:43:50.846Z,2.00
2019-01-12T02:44:50.861Z,1.90
2019-01-12T02:45:50.886Z,1.90
2019-01-12T02:46:50.897Z,1.80
2019-01-12T02:47:50.892Z,2.10
2019-01-12T02:48:50.903Z,1.60
2019-01-12T02:49:50.910Z,1.90
2019-01-12T02:50:50.921Z,2.20
2019-01-12T02:51:50.943Z,1.80
2019-01-12T02:52:50.947Z,1.90
2019-01-12T02:53:50.966Z,1.90
2019-01-12T02:54:50.967Z,2.20
2019-01-12T02:55:50.976Z,1.90
2019-01-12T02:56:50.984Z,2.00
2019-01-12T02:57:50.998Z,2.20
2019-01-12T02:58:51.008Z,2.00
2019-01-12T02:59:51.023Z,2.00
2019-01-12T03:00:51.032Z,2.20
2019-01-12T03:01:51.051Z,2.20
2019-01-12T03:02:51.124Z,2.40
2019-01-12T03:03:51.088Z,2.30
2019-01-12T03:04:51.077Z,2.10
2019-01-12T03:05:51.103Z,2.40
2019-01-12T03:06:51.120Z,2.30
2019-01-12T03:07:51.104Z,2.50
2019-01-12T03:08:51.113Z,2.40
2019-01-12T03:09:51.124Z,2.40
2019-01-12T03:10:51.137Z,2.60
2019-01-12T03:11:51.144Z,2.40
2019-01-12T03:12:51.158Z,2.10
2019-01-12T03:13:51.173Z,2.20
2019-01-12T03:14:51.183Z,2.80
2019-01-12T03:15:51.188Z,2.40
2019-01-12T03:16:51.203Z,2.40
2019-01-12T03:17:51.213Z,2.60
2019-01-12T03:18:51.222Z,2.30
2019-01-12T03:19:51.236Z,2.60
2019-01-12T03:20:51.245Z,2.20
2019-01-12T03:21:51.252Z,2.60
2019-01-12T03:22:51.266Z,2.30
2019-01-12T03:23:51.279Z,2.40
2019-01-12T03:24:51.297Z,2.20
2019-01-12T03:25:51.443Z,2.40
2019-01-12T03:26:51.341Z,2.30
2019-01-12T03:27:51.322Z,2.40
2019-01-12T03:28:51.334Z,2.20
2019-01-12T03:29:51.350Z,2.20
2019-01-12T03:30:51.364Z,2.30
2019-01-12T03:31:51.372Z,2.40
2019-01-12T03:32:51.380Z,2.90
2019-01-12T03:33:51.389Z,2.30
2019-01-12T03:34:51.422Z,2.20
2019-01-12T03:35:51.409Z,1.90
2019-01-12T03:36:51.417Z,2.20
2019-01-12T03:37:51.480Z,2.10
2019-01-12T03:38:51.435Z,2.10
2019-01-12T03:39:51.446Z,2.00
2019-01-12T03:40:51.463Z,2.10
2019-01-12T03:41:51.469Z,2.10
2019-01-12T03:42:51.488Z,2.60
2019-01-12T03:43:51.492Z,2.20
2019-01-12T03:44:51.503Z,2.10
2019-01-12T03:45:51.523Z,2.20
2019-01-12T03:46:51.549Z,2.20
2019-01-12T03:47:51.542Z,2.70
2019-01-12T03:48:51.560Z,2.40
2019-01-12T03:49:51.560Z,2.20
2019-01-12T03:50:51.563Z,2.40
2019-01-12T03:51:51.578Z,2.40
2019-01-12T03:52:51.589Z,2.20
2019-01-12T03:53:51.599Z,2.10
2019-01-12T03:54:51.608Z,2.20
2019-01-12T03:55:51.625Z,2.00
2019-01-12T03:56:51.633Z,2.00
2019-01-12T03:57:51.649Z,2.50
2019-01-12T03:58:51.670Z,2.20
2019-01-12T03:59:51.673Z,1.90
2019-01-12T04:00:51.679Z,2.50
2019-01-12T04:01:51.715Z,2.10
2019-01-12T04:02:51.714Z,2.50
2019-01-12T04:03:51.786Z,2.10
2019-01-12T04:04:51.736Z,2.00
2019-01-12T04:05:51.726Z,1.90
2019-01-12T04:06:51.741Z,1.90
2019-01-12T04:07:51.945Z,2.00
2019-01-12T04:08:51.776Z,2.40
2019-01-12T04:09:51.779Z,2.10
2019-01-12T04:10:51.786Z,2.00
2019-01-12T04:11:51.800Z,2.10
2019-01-12T04:12:51.803Z,1.90
2019-01-12T04:13:51.804Z,2.10
2019-01-12T04:14:51.816Z,2.00
2019-01-12T04:15:51.845Z,2.10
2019-01-12T04:16:51.838Z,2.10
2019-01-12T04:17:51.847Z,2.10
2019-01-12T04:18:51.859Z,1.90
2019-01-12T04:19:51.870Z,2.30
2019-01-12T04:20:51.881Z,2.30
2019-01-12T04:21:51.887Z,2.30
2019-01-12T04:22:51.902Z,2.40
2019-01-12T04:23:51.912Z,2.20
2019-01-12T04:24:51.922Z,2.60
2019-01-12T04:26:51.941Z,2.20
2019-01-12T04:27:51.959Z,2.40
2019-01-12T04:28:51.968Z,2.40
2019-01-12T04:29:51.975Z,2.60
2019-01-12T04:30:52.034Z,2.20
2019-01-12T04:31:52.007Z,2.80
2019-01-12T04:32:52.010Z,2.40
2019-01-12T04:33:52.015Z,2.80
2019-01-12T04:34:52.064Z,3.00
2019-01-12T04:35:52.039Z,2.50
2019-01-12T04:36:52.049Z,2.60
2019-01-12T04:37:52.090Z,2.70
2019-01-12T04:38:52.071Z,2.60
2019-01-12T04:39:52.084Z,2.80
2019-01-12T04:40:52.092Z,2.60
2019-01-12T04:41:52.104Z,2.80
2019-01-12T04:42:52.112Z,3.10
2019-01-12T04:43:52.123Z,2.80
2019-01-12T04:44:52.135Z,3.00
2019-01-12T04:45:52.140Z,2.80
2019-01-12T04:46:52.154Z,3.10
2019-01-12T04:47:52.165Z,2.90
2019-01-12T04:48:52.174Z,2.80
2019-01-12T04:49:52.183Z,2.90
2019-01-12T04:50:52.296Z,3.00
2019-01-12T04:51:52.203Z,3.10
2019-01-12T04:52:52.217Z,3.10
2019-01-12T04:53:52.227Z,3.50
2019-01-12T04:54:52.242Z,3.30
2019-01-12T04:55:52.248Z,2.90
2019-01-12T04:56:52.263Z,3.40
2019-01-12T04:57:52.269Z,3.50
2019-01-12T04:58:52.282Z,3.10
2019-01-12T04:59:52.294Z,3.10
2019-01-12T05:00:52.298Z,3.20
2019-01-12T05:01:52.310Z,3.10
2019-01-12T05:02:52.319Z,3.10
2019-01-12T05:03:52.332Z,3.60
2019-01-12T05:04:52.342Z,3.30
2019-01-12T05:05:52.352Z,3.20
2019-01-12T05:06:52.363Z,3.40
2019-01-12T05:07:52.381Z,3.30
2019-01-12T05:08:52.385Z,3.60
2019-01-12T05:09:52.391Z,3.60
2019-01-12T05:10:52.401Z,3.60
2019-01-12T05:11:52.415Z,3.80
2019-01-12T05:12:52.424Z,3.60
2019-01-12T05:13:52.437Z,3.70
2019-01-12T05:14:52.448Z,4.00
2019-01-12T05:15:52.459Z,3.80
2019-01-12T05:16:52.483Z,3.70
2019-01-12T05:17:52.474Z,3.70
2019-01-12T05:18:52.489Z,4.00
2019-01-12T05:19:52.494Z,4.00
2019-01-12T05:20:52.510Z,4.40
2019-01-12T05:21:52.516Z,3.90
2019-01-12T05:22:52.528Z,4.30
2019-01-12T05:23:52.546Z,4.50
2019-01-12T05:24:52.547Z,4.40
2019-01-12T05:25:52.559Z,4.40
2019-01-12T05:26:52.587Z,4.60
2019-01-12T05:27:52.581Z,4.70
2019-01-12T05:28:52.638Z,4.60
2019-01-12T05:29:52.681Z,4.40
2019-01-12T05:30:52.615Z,4.40
2019-01-12T05:31:52.625Z,4.00
2019-01-12T05:32:52.634Z,4.50
2019-01-12T05:33:52.644Z,4.40
2019-01-12T05:34:52.751Z,4.20
2019-01-12T05:35:52.660Z,3.70
2019-01-12T05:36:52.673Z,5.00
2019-01-12T05:37:52.681Z,4.00
2019-01-12T05:38:52.693Z,4.40
2019-01-12T05:39:52.700Z,3.80
2019-01-12T05:40:52.729Z,4.10
2019-01-12T05:41:52.722Z,3.90
2019-01-12T05:42:52.734Z,3.60
2019-01-12T05:43:52.744Z,3.70
2019-01-12T05:44:52.758Z,3.70
2019-01-12T05:45:52.765Z,3.30
2019-01-12T05:46:52.775Z,3.50
2019-01-12T05:47:52.782Z,3.70
2019-01-12T05:48:52.795Z,3.40
2019-01-12T05:49:54.230Z,3.20
2019-01-12T05:50:52.818Z,3.50
2019-01-12T05:51:52.828Z,3.00
2019-01-12T05:52:52.840Z,3.60
2019-01-12T05:53:52.847Z,3.40
2019-01-12T05:54:52.868Z,3.40
2019-01-12T05:55:57.906Z,3.20
2019-01-12T05:56:52.885Z,3.50
2019-01-12T05:57:52.890Z,3.60
2019-01-12T05:58:52.898Z,3.20
2019-01-12T05:59:53.006Z,3.60
2019-01-12T06:00:52.920Z,3.70
2019-01-12T06:01:52.930Z,3.60
2019-01-12T06:02:52.942Z,3.80
2019-01-12T06:03:52.952Z,3.60
2019-01-12T06:04:52.959Z,3.90
2019-01-12T06:05:52.973Z,3.80
2019-01-12T06:06:52.986Z,3.90
2019-01-12T06:07:53.008Z,4.40
2019-01-12T06:08:53.008Z,4.10
2019-01-12T06:09:53.016Z,4.00
2019-01-12T06:10:53.061Z,4.10
2019-01-12T06:11:53.038Z,4.60
2019-01-12T06:12:53.051Z,4.30
2019-01-12T06:13:53.063Z,4.20
2019-01-12T06:14:53.066Z,4.50
2019-01-12T06:15:53.075Z,4.50
2019-01-12T06:16:53.087Z,4.60
2019-01-12T06:17:53.097Z,4.80
2019-01-12T06:18:53.106Z,5.10
2019-01-12T06:19:53.153Z,4.90
2019-01-12T06:20:53.129Z,4.80
2019-01-12T06:21:53.151Z,5.20
2019-01-12T06:22:53.156Z,5.10
2019-01-12T06:23:53.160Z,5.00
2019-01-12T06:24:53.172Z,5.20
2019-01-12T06:25:53.963Z,5.00
2019-01-12T06:26:53.190Z,5.70
2019-01-12T06:27:53.208Z,5.40
2019-01-12T06:28:53.220Z,5.70
2019-01-12T06:29:53.222Z,6.00
2019-01-12T06:30:53.235Z,6.60
2019-01-12T06:31:53.247Z,6.20
2019-01-12T06:32:53.255Z,6.80
2019-01-12T06:33:53.271Z,6.80
2019-01-12T06:34:53.291Z,7.30
2019-01-12T06:35:53.298Z,7.60
2019-01-12T06:36:53.304Z,7.00
2019-01-12T06:37:53.312Z,7.00
2019-01-12T06:38:53.318Z,7.60
2019-01-12T06:39:53.329Z,7.80
2019-01-12T06:40:53.341Z,8.30
2019-01-12T06:41:53.461Z,8.20
2019-01-12T06:42:53.362Z,7.80
2019-01-12T06:43:53.377Z,8.30
2019-01-12T06:44:53.391Z,7.80
2019-01-12T06:45:53.401Z,8.10
2019-01-12T06:46:53.409Z,7.80
2019-01-12T06:47:53.417Z,7.50
2019-01-12T06:48:53.424Z,8.10
2019-01-12T06:49:53.439Z,8.60
2019-01-12T06:50:53.563Z,8.30
2019-01-12T06:51:53.456Z,7.90
2019-01-12T06:52:53.471Z,8.40
2019-01-12T06:53:53.482Z,8.20
2019-01-12T06:54:53.494Z,8.00
2019-01-12T06:55:53.504Z,8.50
2019-01-12T06:56:53.511Z,8.80
2019-01-12T06:57:53.519Z,9.30
2019-01-12T06:58:53.638Z,8.80
2019-01-12T06:59:53.545Z,8.60
2019-01-12T07:00:53.556Z,8.80
2019-01-12T07:01:53.565Z,9.00
2019-01-12T07:02:53.577Z,9.50
2019-01-12T07:03:53.589Z,9.40
2019-01-12T07:04:53.595Z,8.90
2019-01-12T07:05:53.608Z,9.50
2019-01-12T07:06:53.618Z,9.40
2019-01-12T07:07:53.629Z,9.50
2019-01-12T07:08:53.642Z,9.50
2019-01-12T07:09:53.648Z,8.60
2019-01-12T07:10:53.662Z,9.60
2019-01-12T07:11:53.670Z,10.30
2019-01-12T07:12:53.684Z,9.70
2019-01-12T07:13:53.696Z,10.60
2019-01-12T07:14:53.708Z,9.80
2019-01-12T07:15:53.712Z,9.60
2019-01-12T07:16:53.724Z,10.50
2019-01-12T07:17:53.924Z,10.60
2019-01-12T07:18:53.748Z,10.80
2019-01-12T07:19:53.757Z,11.50
2019-01-12T07:20:53.768Z,12.10
2019-01-12T07:21:54.108Z,12.10
2019-01-12T07:22:53.804Z,12.20
2019-01-12T07:23:53.799Z,11.90
2019-01-12T07:24:53.808Z,11.80
2019-01-12T07:25:53.820Z,11.60
2019-01-12T07:26:53.829Z,11.40
2019-01-12T07:27:53.843Z,11.50
2019-01-12T07:28:53.854Z,11.40
2019-01-12T07:29:53.883Z,13.10
2019-01-12T07:30:53.871Z,12.60
2019-01-12T07:31:53.884Z,12.80
2019-01-12T07:32:53.895Z,12.30
2019-01-12T07:33:53.911Z,12.20
2019-01-12T07:34:53.922Z,12.20
2019-01-12T07:35:53.935Z,12.80
2019-01-12T07:36:53.983Z,12.20
2019-01-12T07:37:53.949Z,12.90
2019-01-12T07:38:53.958Z,13.00
2019-01-12T07:39:53.971Z,13.40
2019-01-12T07:40:53.983Z,13.00
2019-01-12T07:41:53.994Z,13.20
2019-01-12T07:42:54.004Z,13.00
2019-01-12T07:43:54.010Z,14.10
2019-01-12T07:44:54.024Z,13.90
2019-01-12T07:45:54.034Z,13.70
2019-01-12T07:46:54.049Z,13.90
2019-01-12T07:47:54.053Z,14.90
2019-01-12T07:48:54.124Z,15.00
2019-01-12T07:49:54.088Z,14.10
2019-01-12T07:50:54.093Z,15.00
2019-01-12T07:51:54.097Z,15.20
2019-01-12T07:52:54.113Z,15.50
2019-01-12T07:53:54.125Z,15.20
2019-01-12T07:54:54.131Z,14.50
2019-01-12T07:55:54.140Z,15.30
2019-01-12T07:56:54.158Z,15.60
2019-01-12T07:57:54.165Z,15.40
2019-01-12T07:58:54.173Z,15.30
2019-01-12T07:59:54.185Z,15.50
2019-01-12T08:00:54.618Z,15.60
2019-01-12T08:01:54.208Z,17.20
2019-01-12T08:02:54.216Z,16.50
2019-01-12T08:03:54.229Z,16.00
2019-01-12T08:04:54.235Z,15.40
2019-01-12T08:05:54.246Z,16.30
2019-01-12T08:06:54.258Z,16.40
2019-01-12T08:07:54.266Z,15.60
2019-01-12T08:08:54.283Z,15.10
2019-01-12T08:09:54.286Z,15.70
2019-01-12T08:10:54.296Z,15.20
2019-01-12T08:11:54.311Z,15.60
2019-01-12T08:12:54.319Z,15.30
2019-01-12T08:13:54.333Z,14.80
2019-01-12T08:14:54.340Z,14.90
2019-01-12T08:15:54.366Z,15.10
2019-01-12T08:16:54.379Z,14.90
2019-01-12T08:17:54.383Z,14.90
2019-01-12T08:18:54.389Z,14.30
2019-01-12T08:19:54.403Z,14.40
2019-01-12T08:20:54.408Z,14.20
2019-01-12T08:21:54.416Z,15.40
2019-01-12T08:22:54.429Z,15.50
2019-01-12T08:23:54.441Z,15.00
2019-01-12T08:24:54.450Z,14.60
2019-01-12T08:25:54.458Z,15.00
2019-01-12T08:26:54.528Z,14.20
2019-01-12T08:27:54.484Z,15.10
2019-01-12T08:28:54.492Z,14.40
2019-01-12T08:29:54.503Z,15.20
2019-01-12T08:30:54.513Z,15.10
2019-01-12T08:31:54.641Z,13.00
2019-01-12T08:32:54.538Z,13.80
2019-01-12T08:33:54.563Z,14.80
2019-01-12T08:34:54.560Z,14.20
2019-01-12T08:35:54.566Z,13.70
2019-01-12T08:36:54.578Z,14.30
2019-01-12T08:37:54.606Z,13.90
2019-01-12T08:38:54.603Z,14.50
2019-01-12T08:39:54.621Z,13.40
2019-01-12T08:40:54.625Z,13.60
2019-01-12T08:41:54.634Z,13.70
2019-01-12T08:42:54.653Z,13.40
2019-01-12T08:43:54.654Z,14.00
2019-01-12T08:44:54.664Z,14.00
2019-01-12T08:45:54.676Z,14.10
2019-01-12T08:46:54.689Z,13.00
2019-01-12T08:47:54.749Z,14.40
2019-01-12T08:48:54.708Z,14.40
2019-01-12T08:49:54.723Z,14.70
2019-01-12T08:50:54.732Z,14.30
2019-01-12T08:51:54.748Z,14.80
2019-01-12T08:52:54.749Z,14.70
2019-01-12T08:53:54.767Z,15.20
2019-01-12T08:54:54.771Z,15.00
2019-01-12T08:55:54.790Z,15.10
2019-01-12T08:56:54.801Z,15.30
2019-01-12T08:57:54.808Z,15.70
2019-01-12T08:58:54.816Z,14.60
2019-01-12T08:59:54.827Z,16.00
2019-01-12T09:00:54.836Z,16.40
2019-01-12T09:01:54.854Z,15.50
2019-01-12T09:02:54.864Z,15.20
2019-01-12T09:03:54.867Z,16.50
2019-01-12T09:04:54.880Z,15.60
2019-01-12T09:05:54.893Z,15.20
2019-01-12T09:06:54.903Z,15.80
2019-01-12T09:07:54.928Z,15.90
2019-01-12T09:08:54.929Z,16.80
2019-01-12T09:09:54.941Z,16.40
2019-01-12T09:10:54.948Z,17.10
2019-01-12T09:11:54.958Z,16.80
2019-01-12T09:12:54.984Z,17.40
2019-01-12T09:13:54.979Z,16.70
2019-01-12T09:14:55.024Z,17.70
2019-01-12T09:15:54.999Z,16.80
2019-01-12T09:16:55.023Z,16.20
2019-01-12T09:17:55.043Z,16.20
2019-01-12T09:18:55.030Z,17.70
2019-01-12T09:19:55.097Z,16.80
2019-01-12T09:20:55.052Z,17.50
2019-01-12T09:21:55.065Z,16.30
2019-01-12T09:22:55.084Z,17.10
2019-01-12T09:24:55.119Z,18.40
2019-01-12T09:25:55.125Z,15.90
2019-01-12T09:26:55.119Z,18.50
2019-01-12T09:27:55.135Z,17.50
2019-01-12T09:28:55.139Z,17.80
2019-01-12T09:29:55.345Z,19.60
2019-01-12T09:30:55.156Z,19.80
2019-01-12T09:31:55.177Z,18.20
2019-01-12T09:32:55.183Z,18.60
2019-01-12T09:33:55.192Z,19.30
2019-01-12T09:34:55.202Z,18.10
2019-01-12T09:35:55.216Z,19.20
2019-01-12T09:36:55.224Z,19.30
2019-01-12T09:37:55.233Z,19.20
2019-01-12T09:38:55.244Z,19.20
2019-01-12T09:39:55.254Z,18.90
2019-01-12T09:40:55.280Z,19.90
2019-01-12T09:41:55.275Z,19.60
2019-01-12T09:42:55.287Z,20.40
2019-01-12T09:43:55.296Z,21.10
2019-01-12T09:44:55.310Z,20.20
2019-01-12T09:45:55.319Z,21.20
2019-01-12T09:46:55.338Z,20.80
2019-01-12T09:47:55.340Z,18.80
2019-01-12T09:48:55.354Z,17.00
2019-01-12T09:49:55.361Z,19.50
2019-01-12T09:50:55.385Z,19.80
2019-01-12T09:51:55.425Z,19.00
2019-01-12T09:52:55.398Z,20.80
2019-01-12T09:53:55.404Z,21.40
2019-01-12T09:54:55.413Z,19.30
2019-01-12T09:55:55.428Z,21.60
2019-01-12T09:56:55.469Z,21.40
2019-01-12T09:57:55.456Z,23.10
2019-01-12T09:58:55.457Z,23.40
2019-01-12T09:59:55.471Z,22.00
2019-01-12T10:00:55.481Z,22.90
2019-01-12T10:01:55.487Z,23.00
2019-01-12T10:02:55.502Z,22.10
2019-01-12T10:03:55.516Z,21.80
2019-01-12T10:04:55.519Z,23.70
2019-01-12T10:05:55.536Z,23.30
2019-01-12T10:06:55.547Z,25.10
2019-01-12T10:07:55.571Z,23.40
2019-01-12T10:08:55.565Z,25.30
2019-01-12T10:09:55.573Z,25.70
2019-01-12T10:10:55.587Z,24.60
2019-01-12T10:11:55.594Z,26.30
2019-01-12T10:12:55.625Z,26.40
2019-01-12T10:13:55.613Z,26.40
2019-01-12T10:14:55.625Z,26.30
2019-01-12T10:15:55.638Z,26.90
2019-01-12T10:16:55.648Z,28.00
2019-01-12T10:17:55.658Z,28.60
2019-01-12T10:18:55.667Z,28.50
2019-01-12T10:20:55.702Z,28.10
2019-01-12T10:21:55.701Z,28.10
2019-01-12T10:22:55.715Z,28.00
2019-01-12T10:23:55.723Z,28.40
2019-01-12T10:24:55.729Z,29.40
2019-01-12T10:25:55.747Z,29.30
2019-01-12T10:26:58.723Z,27.70
2019-01-12T10:27:55.774Z,29.50
2019-01-12T10:28:55.822Z,27.40
2019-01-12T10:29:55.791Z,29.40
2019-01-12T10:30:55.796Z,30.80
2019-01-12T10:31:55.806Z,29.70
2019-01-12T10:32:55.822Z,29.10
2019-01-12T10:33:55.826Z,29.10
2019-01-12T10:34:55.849Z,30.90
2019-01-12T10:35:55.857Z,31.10
2019-01-12T10:36:55.859Z,31.30
2019-01-12T10:37:55.882Z,31.20
2019-01-12T10:38:55.891Z,31.40
2019-01-12T10:39:55.991Z,31.20
2019-01-12T10:40:55.913Z,31.50
2019-01-12T10:41:55.911Z,32.10
2019-01-12T10:42:55.917Z,32.20
2019-01-12T10:43:55.943Z,32.70
2019-01-12T10:44:56.037Z,33.10
2019-01-12T10:45:55.951Z,33.40
2019-01-12T10:46:55.991Z,31.10
2019-01-12T10:47:55.983Z,33.40
2019-01-12T10:48:55.991Z,34.60
2019-01-12T10:49:55.993Z,34.50
2019-01-12T10:50:56.006Z,34.00
2019-01-12T10:51:56.015Z,35.10
2019-01-12T10:52:56.029Z,35.50
2019-01-12T10:53:56.039Z,34.80
2019-01-12T10:54:56.075Z,34.70
2019-01-12T10:55:56.076Z,29.50
2019-01-12T10:56:56.072Z,33.60
2019-01-12T10:57:56.079Z,34.40
2019-01-12T10:58:56.099Z,34.90
2019-01-12T10:59:56.101Z,34.30
2019-01-12T11:00:56.116Z,36.70
2019-01-12T11:01:56.127Z,37.60
2019-01-12T11:02:56.140Z,35.20
2019-01-12T11:03:56.154Z,34.10
2019-01-12T11:04:56.155Z,35.10
2019-01-12T11:05:56.162Z,35.90
2019-01-12T11:06:56.181Z,36.70
2019-01-12T11:07:56.192Z,35.90
2019-01-12T11:08:56.188Z,33.90
2019-01-12T11:09:56.193Z,35.90
2019-01-12T11:10:56.208Z,37.60
2019-01-12T11:11:56.227Z,35.40
2019-01-12T11:12:56.281Z,34.80
2019-01-12T11:13:56.241Z,36.30
2019-01-12T11:14:56.252Z,37.00
2019-01-12T11:15:56.260Z,38.10
2019-01-12T11:16:56.294Z,32.80
2019-01-12T11:17:56.281Z,37.10
2019-01-12T11:18:56.294Z,37.00
2019-01-12T11:19:56.299Z,37.70
2019-01-12T11:20:56.311Z,37.90
2019-01-12T11:21:56.321Z,37.00
2019-01-12T11:22:56.332Z,36.60
2019-01-12T11:23:56.342Z,35.20
2019-01-12T11:24:56.367Z,34.80
2019-01-12T11:25:56.372Z,36.30
2019-01-12T11:26:56.378Z,35.20
2019-01-12T11:27:56.396Z,35.30
2019-01-12T11:28:56.404Z,35.70
2019-01-12T11:29:56.416Z,35.70
2019-01-12T11:30:56.417Z,34.40
2019-01-12T11:31:56.433Z,34.70
2019-01-12T11:32:56.437Z,34.70
2019-01-12T11:33:56.443Z,34.90
2019-01-12T11:34:56.456Z,35.80
2019-01-12T11:35:56.469Z,35.50
2019-01-12T11:36:56.478Z,34.50
2019-01-12T11:37:56.485Z,33.80
2019-01-12T11:38:56.499Z,34.60
2019-01-12T11:39:56.506Z,33.40
2019-01-12T11:40:56.528Z,33.40
2019-01-12T11:41:56.530Z,34.80
2019-01-12T11:42:56.540Z,35.70
2019-01-12T11:43:56.549Z,35.70
2019-01-12T11:44:56.580Z,35.10
2019-01-12T11:45:56.575Z,34.40
2019-01-12T11:46:56.584Z,30.70
2019-01-12T11:47:56.591Z,33.20
2019-01-12T11:48:56.603Z,33.90
2019-01-12T11:49:56.609Z,32.70
2019-01-12T11:50:56.619Z,30.70
2019-01-12T11:51:56.630Z,31.00
2019-01-12T11:52:56.754Z,34.40
2019-01-12T11:53:56.650Z,35.30
2019-01-12T11:54:56.664Z,34.30
2019-01-12T11:55:56.673Z,34.50
2019-01-12T11:56:56.682Z,32.70
2019-01-12T11:57:56.694Z,33.10
2019-01-12T11:58:56.706Z,32.50
2019-01-12T11:59:56.717Z,32.10
2019-01-12T12:00:56.727Z,32.80
2019-01-12T12:01:56.743Z,31.40
2019-01-12T12:02:56.748Z,32.10
2019-01-12T12:03:56.759Z,31.60
2019-01-12T12:04:56.790Z,31.60
2019-01-12T12:05:56.776Z,31.60
2019-01-12T12:06:56.789Z,30.30
2019-01-12T12:07:56.802Z,30.30
2019-01-12T12:08:56.813Z,29.50
2019-01-12T12:09:56.820Z,27.70
2019-01-12T12:10:56.831Z,29.80
2019-01-12T12:11:56.857Z,29.00
2019-01-12T12:12:56.852Z,29.90
2019-01-12T12:13:58.739Z,29.30
2019-01-12T12:14:56.871Z,28.70
2019-01-12T12:15:56.885Z,28.40
2019-01-12T12:16:56.892Z,28.20
2019-01-12T12:17:56.904Z,28.20
2019-01-12T12:18:56.917Z,28.30
2019-01-12T12:19:56.925Z,26.00
2019-01-12T12:20:56.935Z,26.60
2019-01-12T12:21:56.945Z,26.30
2019-01-12T12:22:56.956Z,24.40
2019-01-12T12:23:56.963Z,25.60
2019-01-12T12:24:56.974Z,24.80
2019-01-12T12:25:56.990Z,24.50
2019-01-12T12:26:56.998Z,23.20
2019-01-12T12:27:57.007Z,20.40
2019-01-12T12:28:57.016Z,23.90
2019-01-12T12:29:57.032Z,24.10
2019-01-12T12:30:57.043Z,24.50
2019-01-12T12:31:57.055Z,25.30
2019-01-12T12:32:57.059Z,24.60
2019-01-12T12:33:57.068Z,18.90
2019-01-12T12:34:57.083Z,21.90
2019-01-12T12:35:57.101Z,22.50
2019-01-12T12:36:57.102Z,23.10
2019-01-12T12:37:57.337Z,22.00
2019-01-12T12:38:57.120Z,22.20
2019-01-12T12:39:57.133Z,21.50
2019-01-12T12:40:57.140Z,21.10
2019-01-12T12:41:57.153Z,21.50
2019-01-12T12:42:57.162Z,21.20
2019-01-12T12:43:57.176Z,21.60
2019-01-12T12:44:57.206Z,21.20
2019-01-12T12:45:57.193Z,20.60
2019-01-12T12:46:57.205Z,21.90
2019-01-12T12:47:57.217Z,22.10
2019-01-12T12:48:57.225Z,21.30
2019-01-12T12:49:57.237Z,21.10
2019-01-12T12:50:57.258Z,21.00
2019-01-12T12:51:57.259Z,21.30
2019-01-12T12:52:57.272Z,19.60
2019-01-12T12:53:57.278Z,20.70
2019-01-12T12:54:57.312Z,19.90
2019-01-12T12:55:57.301Z,20.10
2019-01-12T12:56:57.312Z,18.50
2019-01-12T12:57:57.325Z,19.30
2019-01-12T12:58:57.330Z,19.20
2019-01-12T12:59:57.340Z,20.80
2019-01-12T13:00:57.354Z,20.00
2019-01-12T13:01:57.361Z,20.20
2019-01-12T13:02:57.374Z,20.10
2019-01-12T13:03:57.396Z,21.20
2019-01-12T13:04:57.412Z,20.10
2019-01-12T13:05:57.406Z,20.40
2019-01-12T13:06:57.414Z,21.40
2019-01-12T13:07:57.427Z,20.20
2019-01-12T13:08:57.434Z,20.60
2019-01-12T13:09:57.456Z,20.50